createdAt,value
2023-01-27T00:01:35.293Z,19.93
2023-01-27T00:04:03.578Z,15.50
2023-01-27T00:06:36.473Z,15.70
2023-01-27T00:09:04.823Z,20.33
2023-01-27T00:11:50.756Z,21.03
2023-01-27T00:14:20.282Z,17.80
2023-01-27T00:16:48.536Z,18.43
2023-01-27T00:19:19.778Z,20.27
2023-01-27T00:22:05.652Z,18.23
2023-01-27T00:24:39.777Z,19.27
2023-01-27T00:27:10.272Z,17.10
2023-01-27T00:29:41.998Z,13.27
2023-01-27T00:32:28.892Z,16.63
2023-01-27T00:34:57.120Z,18.80
2023-01-27T00:37:25.363Z,18.70
2023-01-27T00:39:53.707Z,18.70
2023-01-27T00:42:21.916Z,21.03
2023-01-27T00:45:10.208Z,19.40
2023-01-27T00:47:38.482Z,17.07
2023-01-27T00:50:08.634Z,16.80
2023-01-27T00:52:36.854Z,19.13
2023-01-27T00:55:05.570Z,16.47
2023-01-27T00:57:33.845Z,16.60
2023-01-27T01:00:03.613Z,17.60
2023-01-27T01:02:31.860Z,18.57
2023-01-27T01:05:00.130Z,16.43
2023-01-27T01:07:33.564Z,17.70
2023-01-27T01:10:01.836Z,17.47
2023-01-27T01:12:30.070Z,16.70
2023-01-27T01:14:58.275Z,17.43
2023-01-27T01:17:27.997Z,17.07
2023-01-27T01:19:56.282Z,17.47
2023-01-27T01:22:24.565Z,20.77
2023-01-27T01:24:52.765Z,19.50
2023-01-27T01:27:20.990Z,20.17
2023-01-27T01:29:49.224Z,18.97
2023-01-27T01:32:17.425Z,16.87
2023-01-27T01:34:46.979Z,17.80
2023-01-27T01:37:17.838Z,16.10
2023-01-27T01:39:46.768Z,14.90
2023-01-27T01:42:15.041Z,15.87
2023-01-27T01:44:45.664Z,15.97
2023-01-27T01:47:18.004Z,18.53
2023-01-27T01:49:49.026Z,18.73
2023-01-27T01:52:21.858Z,19.67
2023-01-27T01:54:56.089Z,21.13
2023-01-27T01:57:30.577Z,22.33
2023-01-27T02:00:03.314Z,17.03
2023-01-27T02:02:42.761Z,18.03
2023-01-27T02:05:18.163Z,20.47
2023-01-27T02:07:54.917Z,19.23
2023-01-27T02:10:25.581Z,18.33
2023-01-27T02:12:53.820Z,21.37
2023-01-27T02:15:22.524Z,19.57
2023-01-27T02:17:51.202Z,22.70
2023-01-27T02:20:30.796Z,20.60
2023-01-27T02:23:06.351Z,18.67
2023-01-27T02:25:48.755Z,21.07
2023-01-27T02:28:16.958Z,17.80
2023-01-27T02:30:45.314Z,19.97
2023-01-27T02:33:14.472Z,19.37
2023-01-27T02:35:48.703Z,16.73
2023-01-27T02:38:19.606Z,18.23
2023-01-27T02:40:52.056Z,17.43
2023-01-27T02:43:20.311Z,17.17
2023-01-27T02:45:49.069Z,14.00
2023-01-27T02:48:22.090Z,15.60
2023-01-27T02:50:59.565Z,16.53
2023-01-27T02:53:32.170Z,17.43
2023-01-27T02:56:02.466Z,14.80
2023-01-27T02:58:30.753Z,13.13
2023-01-27T03:01:07.142Z,15.60
2023-01-27T03:03:36.450Z,13.77
2023-01-27T03:06:05.240Z,15.60
2023-01-27T03:08:33.860Z,13.67
2023-01-27T03:11:03.775Z,17.07
2023-01-27T03:13:32.049Z,13.60
2023-01-27T03:16:17.888Z,17.53
2023-01-27T03:18:47.418Z,19.03
2023-01-27T03:21:16.424Z,18.90
2023-01-27T03:23:49.982Z,17.73
2023-01-27T03:26:24.273Z,16.87
2023-01-27T03:29:10.791Z,16.13
2023-01-27T03:31:42.258Z,18.93
2023-01-27T03:34:11.657Z,17.63
2023-01-27T03:37:03.933Z,20.77
2023-01-27T03:39:50.246Z,20.83
2023-01-27T03:42:37.827Z,17.13
2023-01-27T03:45:28.608Z,18.57
2023-01-27T03:47:57.157Z,19.57
2023-01-27T03:50:31.210Z,21.20
2023-01-27T03:53:04.004Z,19.70
2023-01-27T03:55:32.454Z,23.83
2023-01-27T03:58:18.002Z,22.57
2023-01-27T04:00:46.651Z,20.87
2023-01-27T04:03:32.666Z,22.07
2023-01-27T04:06:22.696Z,22.10
2023-01-27T04:08:50.898Z,21.13
2023-01-27T04:11:37.493Z,21.83
2023-01-27T04:14:08.791Z,22.43
2023-01-27T04:16:37.711Z,24.87
2023-01-27T04:19:08.024Z,26.27
2023-01-27T04:21:36.504Z,24.80
2023-01-27T04:24:08.575Z,25.03
2023-01-27T04:26:36.908Z,25.77
2023-01-27T04:29:07.488Z,26.63
2023-01-27T04:31:35.758Z,25.07
2023-01-27T04:34:04.034Z,27.37
2023-01-27T04:36:32.469Z,23.53
2023-01-27T04:39:01.981Z,24.13
2023-01-27T04:41:35.063Z,21.13
2023-01-27T04:44:11.284Z,21.17
2023-01-27T04:46:45.227Z,19.20
2023-01-27T04:49:19.343Z,19.73
2023-01-27T04:51:48.072Z,20.13
2023-01-27T04:54:17.282Z,19.77
2023-01-27T04:56:58.597Z,18.77
2023-01-27T04:59:28.348Z,19.20
2023-01-27T05:01:56.711Z,19.77
2023-01-27T05:04:26.284Z,19.13
2023-01-27T05:06:54.819Z,21.20
2023-01-27T05:09:23.212Z,24.10
2023-01-27T05:11:51.417Z,22.80
2023-01-27T05:14:23.440Z,19.53
2023-01-27T05:16:53.797Z,22.00
2023-01-27T05:19:22.925Z,18.63
2023-01-27T05:21:51.243Z,23.03
2023-01-27T05:24:19.495Z,21.10
2023-01-27T05:26:47.761Z,18.40
2023-01-27T05:29:16.008Z,22.77
2023-01-27T05:31:44.307Z,21.63
2023-01-27T05:34:14.061Z,22.30
2023-01-27T05:36:42.256Z,18.47
2023-01-27T05:39:12.976Z,19.83
2023-01-27T05:41:41.310Z,17.43
2023-01-27T05:44:12.769Z,17.30
2023-01-27T05:46:42.285Z,15.50
2023-01-27T05:49:10.461Z,16.60
2023-01-27T05:51:41.518Z,18.27
2023-01-27T05:54:10.208Z,14.43
2023-01-27T05:56:39.236Z,16.93
2023-01-27T05:59:08.506Z,17.97
2023-01-27T06:01:37.572Z,17.07
2023-01-27T06:04:06.548Z,16.23
2023-01-27T06:06:35.773Z,15.93
2023-01-27T06:09:05.754Z,14.03
2023-01-27T06:11:34.024Z,16.67
2023-01-27T06:14:02.199Z,16.17
2023-01-27T06:16:30.423Z,20.50
2023-01-27T06:18:58.760Z,16.53
2023-01-27T06:21:27.041Z,17.53
2023-01-27T06:23:55.909Z,19.37
2023-01-27T06:26:25.486Z,23.00
2023-01-27T06:28:53.705Z,18.07
2023-01-27T06:31:23.407Z,15.57
2023-01-27T06:33:52.739Z,17.97
2023-01-27T06:36:23.228Z,18.70
2023-01-27T06:38:52.205Z,16.67
2023-01-27T06:41:21.222Z,15.33
2023-01-27T06:43:55.499Z,19.47
2023-01-27T06:46:23.718Z,23.07
2023-01-27T06:48:51.897Z,19.37
2023-01-27T06:51:20.464Z,17.97
2023-01-27T06:53:48.618Z,16.93
2023-01-27T06:56:17.583Z,17.40
2023-01-27T06:58:45.850Z,18.63
2023-01-27T07:01:15.525Z,18.30
2023-01-27T07:03:53.744Z,14.13
2023-01-27T07:06:22.355Z,17.17
2023-01-27T07:08:51.056Z,20.37
2023-01-27T07:11:19.247Z,19.67
2023-01-27T07:13:47.472Z,17.30
2023-01-27T07:16:17.149Z,14.97
2023-01-27T07:18:45.430Z,13.87
2023-01-27T07:21:13.710Z,17.07
2023-01-27T07:23:41.945Z,17.33
2023-01-27T07:26:24.288Z,17.70
2023-01-27T07:28:54.119Z,22.80
2023-01-27T07:31:23.827Z,19.70
2023-01-27T07:33:53.227Z,22.43
2023-01-27T07:36:21.482Z,17.83
2023-01-27T07:38:51.681Z,18.93
2023-01-27T07:41:22.963Z,17.20
2023-01-27T07:43:52.444Z,16.53
2023-01-27T07:46:21.161Z,19.60
2023-01-27T07:48:54.790Z,18.93
2023-01-27T07:51:23.454Z,20.77
2023-01-27T07:53:51.971Z,18.70
2023-01-27T07:56:20.211Z,21.43
2023-01-27T07:58:48.399Z,17.97
2023-01-27T08:01:16.714Z,16.43
2023-01-27T08:03:45.036Z,17.37
2023-01-27T08:06:14.851Z,20.10
2023-01-27T08:08:43.277Z,17.00
2023-01-27T08:11:14.946Z,15.97
2023-01-27T08:13:44.299Z,14.03
2023-01-27T08:16:15.130Z,18.03
2023-01-27T08:18:43.736Z,16.63
2023-01-27T08:21:14.641Z,16.67
2023-01-27T08:23:42.816Z,18.37
2023-01-27T08:26:11.069Z,17.17
2023-01-27T08:28:41.093Z,15.13
2023-01-27T08:31:34.829Z,13.63
2023-01-27T08:34:03.165Z,18.33
2023-01-27T08:36:32.776Z,17.33
2023-01-27T08:39:00.949Z,18.37
2023-01-27T08:41:29.358Z,19.90
2023-01-27T08:43:57.610Z,20.17
2023-01-27T08:46:25.959Z,19.90
2023-01-27T08:48:54.204Z,26.87
2023-01-27T08:51:22.390Z,20.43
2023-01-27T08:53:51.964Z,22.90
2023-01-27T08:56:20.386Z,19.97
2023-01-27T08:58:48.813Z,23.20
2023-01-27T09:04:09.989Z,30.10
2023-01-27T09:06:38.607Z,24.40
2023-01-27T09:09:12.153Z,26.00
2023-01-27T09:11:43.216Z,27.23
2023-01-27T09:14:11.782Z,27.57
2023-01-27T09:16:40.973Z,24.70
2023-01-27T09:19:09.622Z,28.10
2023-01-27T09:21:37.854Z,29.23
2023-01-27T09:24:07.618Z,25.47
2023-01-27T09:26:35.805Z,25.67
2023-01-27T09:29:04.024Z,26.07
2023-01-27T09:31:32.640Z,31.27
2023-01-27T09:34:01.044Z,29.27
2023-01-27T09:36:29.717Z,30.00
2023-01-27T09:39:02.718Z,23.90
2023-01-27T09:41:53.059Z,21.60
2023-01-27T09:45:07.846Z,22.97
2023-01-27T09:47:53.351Z,24.20
2023-01-27T09:50:38.536Z,22.87
2023-01-27T09:53:56.559Z,21.73
2023-01-27T09:56:41.639Z,24.50
2023-01-27T09:59:26.504Z,21.43
2023-01-27T10:02:12.061Z,23.43
2023-01-27T10:05:23.560Z,22.70
2023-01-27T10:08:15.311Z,17.47
2023-01-27T10:11:09.667Z,19.67
2023-01-27T10:13:55.827Z,19.43
2023-01-27T10:16:48.945Z,20.73
2023-01-27T10:19:43.669Z,20.80
2023-01-27T10:22:21.268Z,18.30
2023-01-27T10:25:08.813Z,17.47
2023-01-27T10:27:38.752Z,18.00
2023-01-27T10:30:15.819Z,19.63
2023-01-27T10:32:47.098Z,19.23
2023-01-27T10:35:20.871Z,21.83
2023-01-27T10:38:04.115Z,21.03
2023-01-27T10:40:41.719Z,22.33
2023-01-27T10:43:19.163Z,23.43
2023-01-27T10:45:59.346Z,27.97
2023-01-27T10:48:37.540Z,23.17
2023-01-27T10:51:12.386Z,19.50
2023-01-27T10:53:52.076Z,22.93
2023-01-27T10:56:28.713Z,21.67
2023-01-27T10:59:06.373Z,23.33
2023-01-27T11:04:39.783Z,23.80
2023-01-27T11:07:08.775Z,25.33
2023-01-27T11:09:41.864Z,20.97
2023-01-27T11:12:14.682Z,26.70
2023-01-27T11:14:47.620Z,22.97
2023-01-27T11:17:26.553Z,18.97
2023-01-27T11:20:04.507Z,19.70
2023-01-27T11:22:42.210Z,20.03
2023-01-27T11:25:25.870Z,18.20
2023-01-27T11:28:18.779Z,16.50
2023-01-27T11:30:57.213Z,14.77
2023-01-27T11:33:37.815Z,17.77
2023-01-27T11:36:07.329Z,16.77
2023-01-27T11:38:35.766Z,15.23
2023-01-27T11:41:04.107Z,15.40
2023-01-27T11:43:34.583Z,11.87
2023-01-27T11:46:09.208Z,14.80
2023-01-27T11:48:44.845Z,17.20
2023-01-27T11:51:20.743Z,16.70
2023-01-27T11:53:56.341Z,14.77
2023-01-27T11:56:26.761Z,14.47
2023-01-27T11:59:02.788Z,16.40
2023-01-27T12:01:47.155Z,15.57
2023-01-27T12:04:24.125Z,14.27
2023-01-27T12:06:58.123Z,14.47
2023-01-27T12:09:35.471Z,14.20
2023-01-27T12:12:24.614Z,13.77
2023-01-27T12:14:55.608Z,13.33
2023-01-27T12:17:31.590Z,12.73
2023-01-27T12:20:04.779Z,13.13
2023-01-27T12:22:35.963Z,13.50
2023-01-27T12:25:08.321Z,13.13
2023-01-27T12:27:43.416Z,11.77
2023-01-27T12:30:22.758Z,11.73
2023-01-27T12:32:52.091Z,12.47
2023-01-27T12:35:25.584Z,11.87
2023-01-27T12:38:00.293Z,12.73
2023-01-27T12:40:29.777Z,11.10
2023-01-27T12:43:12.592Z,10.53
2023-01-27T12:45:43.296Z,12.07
2023-01-27T12:48:21.753Z,11.17
2023-01-27T12:51:06.859Z,13.93
2023-01-27T12:53:35.315Z,12.93
2023-01-27T12:56:13.113Z,13.40
2023-01-27T12:58:44.258Z,13.73
2023-01-27T13:01:30.107Z,12.17
2023-01-27T13:04:01.648Z,10.30
2023-01-27T13:07:08.572Z,12.30
2023-01-27T13:09:40.690Z,12.20
2023-01-27T13:12:18.251Z,11.77
2023-01-27T13:14:46.936Z,11.50
2023-01-27T13:17:31.506Z,11.00
2023-01-27T13:20:04.753Z,9.90
2023-01-27T13:22:43.633Z,10.20
2023-01-27T13:25:20.434Z,10.63
2023-01-27T13:27:51.339Z,11.73
2023-01-27T13:30:29.818Z,11.83
2023-01-27T13:33:17.869Z,9.67
2023-01-27T13:35:58.906Z,10.87
2023-01-27T13:38:39.897Z,12.57
2023-01-27T13:41:16.366Z,9.10
2023-01-27T13:43:57.110Z,10.50
2023-01-27T13:46:31.567Z,10.83
2023-01-27T13:49:04.687Z,10.27
2023-01-27T13:51:36.546Z,9.53
2023-01-27T13:54:07.739Z,10.67
2023-01-27T13:56:49.826Z,7.80
2023-01-27T13:59:41.589Z,9.20
2023-01-27T14:02:35.010Z,9.07
2023-01-27T14:05:34.323Z,8.40
2023-01-27T14:08:19.398Z,9.93
2023-01-27T14:11:08.884Z,9.73
2023-01-27T14:13:57.147Z,10.40
2023-01-27T14:16:35.056Z,12.87
2023-01-27T14:19:19.472Z,12.37
2023-01-27T14:21:54.971Z,10.03
2023-01-27T14:24:39.383Z,8.80
2023-01-27T14:27:15.770Z,9.47
2023-01-27T14:29:51.338Z,9.63
2023-01-27T14:32:28.925Z,9.00
2023-01-27T14:35:29.959Z,9.30
2023-01-27T14:38:11.262Z,7.50
2023-01-27T14:40:54.739Z,10.40
2023-01-27T14:43:36.937Z,7.70
2023-01-27T14:46:18.562Z,8.00
2023-01-27T14:48:58.722Z,8.77
2023-01-27T14:51:36.712Z,10.13
2023-01-27T14:54:26.177Z,8.77
2023-01-27T14:57:16.687Z,10.87
2023-01-27T14:59:56.889Z,10.53
2023-01-27T15:02:43.705Z,10.83
2023-01-27T15:05:27.458Z,13.77
2023-01-27T15:08:04.343Z,10.37
2023-01-27T15:10:34.469Z,10.70
2023-01-27T15:13:32.636Z,8.13
2023-01-27T15:16:25.059Z,10.67
2023-01-27T15:19:17.800Z,10.30
2023-01-27T15:22:30.854Z,9.33
2023-01-27T15:25:22.222Z,7.33
2023-01-27T15:27:54.252Z,12.20
2023-01-27T15:30:26.477Z,9.73
2023-01-27T15:32:56.734Z,9.87
2023-01-27T15:35:36.117Z,9.80
2023-01-27T15:38:43.797Z,12.03
2023-01-27T15:41:17.314Z,10.03
2023-01-27T15:44:16.596Z,10.63
2023-01-27T15:46:47.293Z,11.07
2023-01-27T15:49:23.853Z,8.00
2023-01-27T15:51:55.181Z,10.37
2023-01-27T15:54:27.380Z,10.13
2023-01-27T15:56:56.786Z,8.50
2023-01-27T15:59:27.909Z,8.40
2023-01-27T16:02:11.332Z,9.87
2023-01-27T16:04:41.511Z,9.13
2023-01-27T16:07:30.527Z,8.03
2023-01-27T16:10:00.292Z,9.23
2023-01-27T16:12:38.382Z,8.93
2023-01-27T16:15:38.925Z,8.93
2023-01-27T16:18:28.795Z,9.73
2023-01-27T16:21:06.798Z,8.03
2023-01-27T16:23:45.932Z,9.03
2023-01-27T16:26:30.471Z,12.13
2023-01-27T16:29:17.908Z,9.70
2023-01-27T16:31:52.982Z,10.20
2023-01-27T16:34:27.935Z,10.57
2023-01-27T16:37:16.582Z,16.17
2023-01-27T16:39:48.942Z,17.67
2023-01-27T16:42:31.738Z,29.57
2023-01-27T16:45:03.484Z,34.97
2023-01-27T16:47:41.657Z,31.70
2023-01-27T16:50:34.730Z,17.30
2023-01-27T16:53:06.967Z,14.23
2023-01-27T16:55:35.433Z,12.67
2023-01-27T16:58:04.017Z,10.07
2023-01-27T17:00:37.345Z,10.10
2023-01-27T17:03:15.869Z,9.53
2023-01-27T17:05:55.909Z,9.77
2023-01-27T17:08:27.376Z,9.97
2023-01-27T17:10:58.709Z,10.40
2023-01-27T17:13:29.879Z,10.37
2023-01-27T17:16:08.887Z,12.63
2023-01-27T17:18:51.856Z,14.27
2023-01-27T17:21:31.797Z,11.77
2023-01-27T17:24:16.400Z,9.30
2023-01-27T17:26:48.398Z,9.60
2023-01-27T17:29:21.140Z,8.83
2023-01-27T17:31:50.098Z,7.70
2023-01-27T17:34:21.068Z,9.87
2023-01-27T17:37:13.379Z,12.93
2023-01-27T17:39:43.378Z,11.13
2023-01-27T17:42:16.814Z,8.97
2023-01-27T17:44:45.432Z,10.67
2023-01-27T17:47:16.398Z,17.40
2023-01-27T17:49:46.285Z,10.00
2023-01-27T17:52:22.157Z,9.87
2023-01-27T17:54:52.421Z,10.07
2023-01-27T17:57:24.235Z,13.87
2023-01-27T18:00:04.083Z,17.87
2023-01-27T18:02:50.107Z,22.43
2023-01-27T18:05:22.736Z,13.10
2023-01-27T18:07:51.165Z,8.57
2023-01-27T18:10:36.503Z,9.13
2023-01-27T18:13:20.861Z,9.77
2023-01-27T18:15:51.452Z,10.47
2023-01-27T18:18:25.701Z,9.53
2023-01-27T18:21:06.754Z,10.17
2023-01-27T18:23:38.127Z,10.53
2023-01-27T18:26:19.148Z,8.77
2023-01-27T18:28:51.838Z,10.07
2023-01-27T18:31:23.806Z,11.80
2023-01-27T18:34:00.630Z,9.30
2023-01-27T18:36:35.305Z,8.93
2023-01-27T18:39:04.473Z,9.37
2023-01-27T18:41:37.602Z,8.33
2023-01-27T18:44:08.420Z,8.83
2023-01-27T18:46:36.606Z,11.47
2023-01-27T18:49:06.438Z,9.70
2023-01-27T18:51:34.600Z,8.87
2023-01-27T18:54:02.807Z,12.33
2023-01-27T18:56:30.982Z,8.60
2023-01-27T18:59:00.804Z,8.07
2023-01-27T19:01:29.017Z,8.57
2023-01-27T19:04:00.871Z,8.37
2023-01-27T19:06:29.055Z,9.20
2023-01-27T19:08:57.236Z,10.43
2023-01-27T19:11:25.974Z,10.07
2023-01-27T19:13:54.198Z,11.53
2023-01-27T19:16:24.520Z,10.63
2023-01-27T19:18:52.681Z,8.33
2023-01-27T19:21:20.862Z,12.33
2023-01-27T19:23:49.552Z,9.87
2023-01-27T19:26:20.022Z,9.93
2023-01-27T19:28:50.994Z,9.13
2023-01-27T19:31:19.241Z,9.00
2023-01-27T19:33:48.902Z,8.13
2023-01-27T19:36:22.494Z,9.10
2023-01-27T19:38:56.891Z,10.53
2023-01-27T19:41:25.081Z,8.87
2023-01-27T19:43:53.351Z,7.40
2023-01-27T19:46:23.401Z,6.83
2023-01-27T19:48:53.268Z,7.43
2023-01-27T19:51:21.431Z,8.47
2023-01-27T19:53:49.663Z,9.27
2023-01-27T19:56:20.831Z,8.37
2023-01-27T19:58:51.858Z,8.80
2023-01-27T20:01:20.579Z,8.70
2023-01-27T20:03:48.871Z,7.37
2023-01-27T20:06:21.679Z,8.03
2023-01-27T20:08:53.760Z,7.23
2023-01-27T20:11:36.371Z,6.10
2023-01-27T20:14:07.607Z,8.27
2023-01-27T20:16:36.003Z,8.03
2023-01-27T20:19:08.276Z,7.00
2023-01-27T20:21:38.214Z,7.00
2023-01-27T20:24:07.359Z,7.90
2023-01-27T20:26:37.414Z,7.00
2023-01-27T20:29:05.575Z,8.90
2023-01-27T20:31:33.809Z,7.03
2023-01-27T20:34:01.972Z,7.33
2023-01-27T20:36:30.110Z,8.70
2023-01-27T20:38:59.661Z,8.17
2023-01-27T20:41:27.887Z,9.23
2023-01-27T20:43:57.315Z,7.53
2023-01-27T20:46:25.913Z,8.80
2023-01-27T20:48:54.449Z,8.37
2023-01-27T20:51:25.422Z,7.90
2023-01-27T20:53:53.585Z,8.03
2023-01-27T20:56:25.155Z,8.10
2023-01-27T20:58:54.297Z,7.70
2023-01-27T21:01:32.506Z,8.47
2023-01-27T21:04:00.864Z,8.30
2023-01-27T21:06:29.479Z,8.03
2023-01-27T21:08:57.658Z,7.93
2023-01-27T21:11:27.431Z,8.03
2023-01-27T21:13:55.580Z,7.50
2023-01-27T21:16:23.797Z,7.70
2023-01-27T21:18:52.035Z,6.60
2023-01-27T21:21:26.932Z,7.37
2023-01-27T21:23:55.330Z,7.27
2023-01-27T21:26:23.969Z,9.80
2023-01-27T21:28:53.617Z,6.60
2023-01-27T21:31:24.250Z,8.67
2023-01-27T21:33:52.860Z,7.00
2023-01-27T21:36:21.002Z,7.17
2023-01-27T21:38:50.407Z,6.57
2023-01-27T21:41:45.916Z,6.27
2023-01-27T21:44:37.733Z,6.77
2023-01-27T21:47:07.630Z,7.93
2023-01-27T21:49:57.240Z,7.07
2023-01-27T21:52:27.511Z,7.03
2023-01-27T21:54:55.736Z,8.33
2023-01-27T21:57:23.926Z,8.60
2023-01-27T21:59:53.420Z,7.63
2023-01-27T22:02:21.884Z,7.13
2023-01-27T22:04:50.197Z,7.43
2023-01-27T22:07:20.365Z,7.77
2023-01-27T22:09:48.881Z,9.10
2023-01-27T22:12:18.644Z,6.43
2023-01-27T22:14:46.886Z,6.93
2023-01-27T22:17:18.432Z,7.70
2023-01-27T22:19:47.809Z,7.63
2023-01-27T22:22:16.124Z,6.47
2023-01-27T22:24:44.352Z,8.00
2023-01-27T22:27:12.504Z,7.47
2023-01-27T22:29:40.653Z,8.33
2023-01-27T22:32:08.885Z,7.33
2023-01-27T22:34:38.461Z,6.80
2023-01-27T22:37:06.706Z,6.03
2023-01-27T22:39:35.379Z,8.27
2023-01-27T22:42:03.551Z,6.73
2023-01-27T22:44:31.732Z,5.30
2023-01-27T22:46:59.940Z,6.97
2023-01-27T22:49:28.118Z,7.50
2023-01-27T22:51:57.646Z,5.93
2023-01-27T22:54:26.155Z,4.47
2023-01-27T22:56:54.356Z,6.17
2023-01-27T22:59:22.510Z,6.27
2023-01-27T23:02:15.651Z,5.90
2023-01-27T23:04:43.904Z,6.43
2023-01-27T23:07:13.784Z,4.77
2023-01-27T23:09:41.957Z,6.33
2023-01-27T23:12:10.171Z,5.87
2023-01-27T23:14:38.734Z,10.07
2023-01-27T23:17:06.920Z,6.33
2023-01-27T23:19:35.708Z,5.40
2023-01-27T23:22:04.057Z,4.83
2023-01-27T23:24:34.096Z,7.30
2023-01-27T23:27:02.357Z,5.93
2023-01-27T23:29:30.562Z,4.70
2023-01-27T23:31:58.915Z,5.23
2023-01-27T23:34:27.173Z,5.10
2023-01-27T23:36:55.363Z,4.73
2023-01-27T23:39:23.717Z,6.97
2023-01-27T23:41:53.228Z,4.73
2023-01-27T23:44:21.440Z,5.70
2023-01-27T23:46:49.665Z,5.10
2023-01-27T23:49:17.834Z,4.80
2023-01-27T23:51:45.974Z,6.27
2023-01-27T23:54:15.931Z,5.63
2023-01-27T23:56:44.602Z,5.33
2023-01-27T23:59:14.581Z,5.37
